createdAt,value
2018-03-11T00:01:31.297Z,12.50
2018-03-11T00:03:58.733Z,12.53
2018-03-11T00:06:26.538Z,12.54
2018-03-11T00:08:53.997Z,12.49
2018-03-11T00:11:21.476Z,12.46
2018-03-11T00:13:48.941Z,12.42
2018-03-11T00:16:16.392Z,12.40
2018-03-11T00:18:44.333Z,12.36
2018-03-11T00:21:11.772Z,12.36
2018-03-11T00:23:39.235Z,12.34
2018-03-11T00:26:06.669Z,12.36
2018-03-11T00:28:34.143Z,12.36
2018-03-11T00:31:01.670Z,12.34
2018-03-11T00:33:29.100Z,12.35
2018-03-11T00:35:56.531Z,12.32
2018-03-11T00:38:23.985Z,12.30
2018-03-11T00:40:51.449Z,12.31
2018-03-11T00:43:18.973Z,12.31
2018-03-11T00:45:46.480Z,12.38
2018-03-11T00:48:20.767Z,12.44
2018-03-11T00:51:12.023Z,12.44
2018-03-11T00:53:40.583Z,12.45
2018-03-11T00:56:08.645Z,12.49
2018-03-11T00:58:36.145Z,12.47
2018-03-11T01:01:03.665Z,12.47
2018-03-11T01:03:35.965Z,12.42
2018-03-11T01:08:38.207Z,12.36
2018-03-11T01:11:19.935Z,12.26
2018-03-11T01:13:50.171Z,12.16
2018-03-11T01:16:18.464Z,12.12
2018-03-11T01:18:46.033Z,12.02
2018-03-11T01:21:13.582Z,11.94
2018-03-11T01:23:41.127Z,11.90
2018-03-11T01:26:08.637Z,11.89
2018-03-11T01:28:36.097Z,11.85
2018-03-11T01:31:03.540Z,11.81
2018-03-11T01:33:31.007Z,11.78
2018-03-11T01:35:58.471Z,11.79
2018-03-11T01:38:25.938Z,11.76
2018-03-11T01:40:53.405Z,11.75
2018-03-11T01:43:20.879Z,11.67
2018-03-11T01:45:48.334Z,11.65
2018-03-11T01:48:15.819Z,11.60
2018-03-11T01:50:43.289Z,11.64
2018-03-11T01:53:10.721Z,11.63
2018-03-11T01:55:38.201Z,11.62
2018-03-11T01:58:05.651Z,11.58
2018-03-11T02:00:33.129Z,11.58
2018-03-11T02:03:00.586Z,11.54
2018-03-11T02:05:28.019Z,11.49
2018-03-11T02:07:55.470Z,11.48
2018-03-11T02:10:22.920Z,11.46
2018-03-11T02:12:50.361Z,11.38
2018-03-11T02:15:17.830Z,11.29
2018-03-11T02:17:45.489Z,11.28
2018-03-11T02:20:12.964Z,11.28
2018-03-11T02:22:40.426Z,11.29
2018-03-11T02:25:07.892Z,11.29
2018-03-11T02:27:35.340Z,11.31
2018-03-11T02:30:02.800Z,11.34
2018-03-11T02:32:30.450Z,11.30
2018-03-11T02:34:57.899Z,11.29
2018-03-11T02:37:25.346Z,11.30
2018-03-11T02:39:52.781Z,11.30
2018-03-11T02:42:20.289Z,11.30
2018-03-11T02:44:47.761Z,11.26
2018-03-11T02:47:15.305Z,11.22
2018-03-11T02:49:42.693Z,11.21
2018-03-11T02:52:10.172Z,11.19
2018-03-11T02:54:37.650Z,11.23
2018-03-11T02:57:05.121Z,11.26
2018-03-11T02:59:32.585Z,11.21
2018-03-11T03:02:00.045Z,11.22
2018-03-11T03:04:27.501Z,11.23
2018-03-11T03:06:55.166Z,11.22
2018-03-11T03:09:22.622Z,11.21
2018-03-11T03:11:50.161Z,11.17
2018-03-11T03:14:17.596Z,11.13
2018-03-11T03:16:45.075Z,11.12
2018-03-11T03:19:12.533Z,11.10
2018-03-11T03:21:39.967Z,11.11
2018-03-11T03:24:07.440Z,11.11
2018-03-11T03:26:34.961Z,11.09
2018-03-11T03:29:02.460Z,11.07
2018-03-11T03:31:29.920Z,11.06
2018-03-11T03:33:57.392Z,11.04
2018-03-11T03:36:24.854Z,11.06
2018-03-11T03:38:52.304Z,11.05
2018-03-11T03:41:34.710Z,11.03
2018-03-11T03:44:02.172Z,11.02
2018-03-11T03:46:29.638Z,11.00
2018-03-11T03:48:57.104Z,11.00
2018-03-11T03:51:24.595Z,10.96
2018-03-11T03:53:52.041Z,10.93
2018-03-11T03:56:19.676Z,10.89
2018-03-11T03:58:47.135Z,10.92
2018-03-11T04:01:14.594Z,10.91
2018-03-11T04:03:42.036Z,10.87
2018-03-11T04:06:09.540Z,10.87
2018-03-11T04:08:36.990Z,10.87
2018-03-11T04:11:04.528Z,10.86
2018-03-11T04:13:31.964Z,10.84
2018-03-11T04:15:59.460Z,10.83
2018-03-11T04:18:26.916Z,10.78
2018-03-11T04:20:54.870Z,10.76
2018-03-11T04:23:22.330Z,10.78
2018-03-11T04:25:49.822Z,10.73
2018-03-11T04:28:17.270Z,10.76
2018-03-11T04:30:44.736Z,10.76
2018-03-11T04:33:12.191Z,10.72
2018-03-11T04:35:39.688Z,10.71
2018-03-11T04:38:07.172Z,10.69
2018-03-11T04:40:34.620Z,10.67
2018-03-11T04:43:02.158Z,10.66
2018-03-11T04:45:29.642Z,10.65
2018-03-11T04:47:57.100Z,10.61
2018-03-11T04:50:24.599Z,10.64
2018-03-11T04:52:52.070Z,10.67
2018-03-11T04:55:19.516Z,10.69
2018-03-11T04:57:46.974Z,10.69
2018-03-11T05:00:14.434Z,10.67
2018-03-11T05:02:41.886Z,10.65
2018-03-11T05:05:09.360Z,10.67
2018-03-11T05:07:36.852Z,10.67
2018-03-11T05:10:04.300Z,10.70
2018-03-11T05:12:31.742Z,10.72
2018-03-11T05:14:59.234Z,10.72
2018-03-11T05:17:26.682Z,10.71
2018-03-11T05:19:54.126Z,10.70
2018-03-11T05:22:21.601Z,10.73
2018-03-11T05:24:49.068Z,10.74
2018-03-11T05:27:16.518Z,10.67
2018-03-11T05:29:43.976Z,10.65
2018-03-11T05:32:11.450Z,10.64
2018-03-11T05:34:38.923Z,10.66
2018-03-11T05:37:06.351Z,10.66
2018-03-11T05:39:33.791Z,10.67
2018-03-11T05:42:01.254Z,10.67
2018-03-11T05:44:28.802Z,10.66
2018-03-11T05:46:56.270Z,10.68
2018-03-11T05:49:23.723Z,10.69
2018-03-11T05:51:51.232Z,10.71
2018-03-11T05:54:18.727Z,10.72
2018-03-11T05:56:46.200Z,10.71
2018-03-11T05:59:14.528Z,10.71
2018-03-11T06:01:41.983Z,10.70
2018-03-11T06:04:09.444Z,10.68
2018-03-11T06:06:36.894Z,10.71
2018-03-11T06:09:04.396Z,10.70
2018-03-11T06:11:31.872Z,10.70
2018-03-11T06:13:59.372Z,10.62
2018-03-11T06:16:26.814Z,10.64
2018-03-11T06:18:54.242Z,10.67
2018-03-11T06:21:22.428Z,10.68
2018-03-11T06:23:49.946Z,10.70
2018-03-11T06:26:17.499Z,10.72
2018-03-11T06:28:44.988Z,10.72
2018-03-11T06:31:13.364Z,10.74
2018-03-11T06:33:41.546Z,10.74
2018-03-11T06:36:09.072Z,10.74
2018-03-11T06:38:37.514Z,10.75
2018-03-11T06:41:05.044Z,10.72
2018-03-11T06:43:32.572Z,10.73
2018-03-11T06:46:00.079Z,10.76
2018-03-11T06:51:10.399Z,10.80
2018-03-11T06:53:37.867Z,10.84
2018-03-11T06:56:05.316Z,10.91
2018-03-11T06:58:32.780Z,10.96
2018-03-11T07:01:00.247Z,10.98
2018-03-11T07:03:27.709Z,10.99
2018-03-11T07:05:55.209Z,11.01
2018-03-11T07:08:22.705Z,11.03
2018-03-11T07:10:50.217Z,11.06
2018-03-11T07:13:17.657Z,11.11
2018-03-11T07:15:45.102Z,11.14
2018-03-11T07:18:12.555Z,11.11
2018-03-11T07:20:39.999Z,11.12
2018-03-11T07:23:07.505Z,11.12
2018-03-11T07:25:34.954Z,11.12
2018-03-11T07:28:02.451Z,11.13
2018-03-11T07:30:29.922Z,11.11
2018-03-11T07:32:57.375Z,11.13
2018-03-11T07:35:24.847Z,11.14
2018-03-11T07:37:52.303Z,11.15
2018-03-11T07:40:19.793Z,11.14
2018-03-11T07:42:47.275Z,11.18
2018-03-11T07:45:14.729Z,11.21
2018-03-11T07:47:42.199Z,11.24
2018-03-11T07:50:09.641Z,11.25
2018-03-11T07:52:37.135Z,11.27
2018-03-11T07:55:04.607Z,11.26
2018-03-11T07:57:32.089Z,11.27
2018-03-11T07:59:59.613Z,11.29
2018-03-11T08:02:27.053Z,11.26
2018-03-11T08:04:54.506Z,11.23
2018-03-11T08:07:21.976Z,11.23
2018-03-11T08:09:49.455Z,11.22
2018-03-11T08:12:16.971Z,11.21
2018-03-11T08:14:44.437Z,11.20
2018-03-11T08:17:11.930Z,11.20
2018-03-11T08:19:39.446Z,11.21
2018-03-11T08:22:07.894Z,11.27
2018-03-11T08:24:35.354Z,11.32
2018-03-11T08:27:02.798Z,11.37
2018-03-11T08:29:30.287Z,11.41
2018-03-11T08:31:57.773Z,11.47
2018-03-11T08:34:25.301Z,11.55
2018-03-11T08:36:52.791Z,11.60
2018-03-11T08:39:20.265Z,11.69
2018-03-11T08:41:47.725Z,11.82
2018-03-11T08:44:15.175Z,11.95
2018-03-11T08:46:42.642Z,12.09
2018-03-11T08:49:10.103Z,12.23
2018-03-11T08:51:37.645Z,12.43
2018-03-11T08:54:05.221Z,12.70
2018-03-11T08:56:32.712Z,12.97
2018-03-11T08:59:00.222Z,13.22
2018-03-11T09:01:27.713Z,13.45
2018-03-11T09:03:55.214Z,13.68
2018-03-11T09:06:22.660Z,13.93
2018-03-11T09:08:50.141Z,14.11
2018-03-11T09:11:17.686Z,14.30
2018-03-11T09:13:45.196Z,14.59
2018-03-11T09:16:12.692Z,14.80
2018-03-11T09:18:40.120Z,15.06
2018-03-11T09:21:07.635Z,15.32
2018-03-11T09:23:35.106Z,15.85
2018-03-11T09:26:02.603Z,16.05
2018-03-11T09:28:30.096Z,16.51
2018-03-11T09:30:57.624Z,16.69
2018-03-11T09:33:25.166Z,17.12
2018-03-11T09:35:52.692Z,17.61
2018-03-11T09:38:20.185Z,18.52
2018-03-11T09:40:47.753Z,18.82
2018-03-11T09:43:15.203Z,19.32
2018-03-11T09:45:42.712Z,20.18
2018-03-11T09:48:10.180Z,20.91
2018-03-11T09:50:37.643Z,21.15
2018-03-11T09:53:05.166Z,22.00
2018-03-11T09:55:32.654Z,22.22
2018-03-11T09:58:00.121Z,22.50
2018-03-11T10:00:27.599Z,22.60
2018-03-11T10:02:55.058Z,23.07
2018-03-11T10:05:22.534Z,23.19
2018-03-11T10:07:49.979Z,23.75
2018-03-11T10:10:17.484Z,24.07
2018-03-11T10:12:44.961Z,24.44
2018-03-11T10:15:12.418Z,24.92
2018-03-11T10:17:39.879Z,24.55
2018-03-11T10:20:07.362Z,24.82
2018-03-11T10:22:34.836Z,24.89
2018-03-11T10:25:02.273Z,25.40
2018-03-11T10:27:29.811Z,25.01
2018-03-11T10:29:57.274Z,25.35
2018-03-11T10:32:24.763Z,25.29
2018-03-11T10:34:53.813Z,25.43
2018-03-11T10:37:21.307Z,25.44
2018-03-11T10:39:49.055Z,25.79
2018-03-11T10:42:16.621Z,26.15
2018-03-11T10:44:44.308Z,25.93
2018-03-11T10:47:13.041Z,25.61
2018-03-11T10:49:41.519Z,25.09
2018-03-11T10:52:09.318Z,25.02
2018-03-11T10:54:37.069Z,24.66
2018-03-11T10:57:04.633Z,24.47
2018-03-11T10:59:35.571Z,24.42
2018-03-11T11:02:08.741Z,23.87
2018-03-11T11:04:41.883Z,23.52
2018-03-11T11:07:09.426Z,23.06
2018-03-11T11:09:36.899Z,22.74
2018-03-11T11:12:04.365Z,22.37
2018-03-11T11:14:31.865Z,22.01
2018-03-11T11:16:59.373Z,21.67
2018-03-11T11:19:26.836Z,21.28
2018-03-11T11:21:54.321Z,20.87
2018-03-11T11:24:21.794Z,20.70
2018-03-11T11:26:49.296Z,20.58
2018-03-11T11:29:16.780Z,20.70
2018-03-11T11:31:45.214Z,20.87
2018-03-11T11:34:12.717Z,20.92
2018-03-11T11:36:40.210Z,20.79
2018-03-11T11:39:07.778Z,20.63
2018-03-11T11:41:35.304Z,20.47
2018-03-11T11:44:02.804Z,20.61
2018-03-11T11:46:30.350Z,21.05
2018-03-11T11:48:57.878Z,21.50
2018-03-11T11:51:25.416Z,22.18
2018-03-11T11:53:52.915Z,22.37
2018-03-11T11:56:21.482Z,22.81
2018-03-11T11:58:49.151Z,23.33
2018-03-11T12:01:16.775Z,23.70
2018-03-11T12:03:44.306Z,24.06
2018-03-11T12:06:11.866Z,24.17
2018-03-11T12:08:39.340Z,24.43
2018-03-11T12:11:06.794Z,24.75
2018-03-11T12:13:34.288Z,24.82
2018-03-11T12:16:01.912Z,24.64
2018-03-11T12:18:29.408Z,24.71
2018-03-11T12:20:56.964Z,24.52
2018-03-11T12:23:24.451Z,24.68
2018-03-11T12:25:51.950Z,24.76
2018-03-11T12:28:19.432Z,24.78
2018-03-11T12:30:46.992Z,24.45
2018-03-11T12:33:14.419Z,23.92
2018-03-11T12:35:41.895Z,23.69
2018-03-11T12:38:10.073Z,24.00
2018-03-11T12:40:37.574Z,24.32
2018-03-11T12:43:05.100Z,24.26
2018-03-11T12:45:32.656Z,24.23
2018-03-11T12:48:00.113Z,24.08
2018-03-11T12:50:27.632Z,24.34
2018-03-11T12:52:55.166Z,24.58
2018-03-11T12:55:22.680Z,24.56
2018-03-11T12:57:50.144Z,24.32
2018-03-11T13:00:17.656Z,24.00
2018-03-11T13:02:45.168Z,23.92
2018-03-11T13:05:12.686Z,23.84
2018-03-11T13:07:40.237Z,23.45
2018-03-11T13:10:07.760Z,23.35
2018-03-11T13:12:35.238Z,23.42
2018-03-11T13:15:02.718Z,23.50
2018-03-11T13:17:30.220Z,23.87
2018-03-11T13:20:09.566Z,24.29
2018-03-11T13:22:37.118Z,24.28
2018-03-11T13:25:04.589Z,24.14
2018-03-11T13:27:32.143Z,24.12
2018-03-11T13:29:59.656Z,24.13
2018-03-11T13:32:39.083Z,24.16
2018-03-11T13:35:06.567Z,23.94
2018-03-11T13:37:34.034Z,23.89
2018-03-11T13:43:02.420Z,23.47
2018-03-11T13:45:41.900Z,23.04
2018-03-11T13:48:09.373Z,22.59
2018-03-11T13:50:36.938Z,22.35
2018-03-11T13:56:13.160Z,21.83
2018-03-11T13:58:44.206Z,21.69
2018-03-11T14:01:11.787Z,21.66
2018-03-11T14:03:39.245Z,21.54
2018-03-11T14:06:06.783Z,21.45
2018-03-11T14:08:34.543Z,21.25
2018-03-11T14:11:06.948Z,21.03
2018-03-11T14:13:34.503Z,20.89
2018-03-11T14:16:01.974Z,20.83
2018-03-11T14:18:29.417Z,20.78
2018-03-11T14:20:56.924Z,20.73
2018-03-11T14:23:24.365Z,20.67
2018-03-11T14:25:51.806Z,20.60
2018-03-11T14:28:19.296Z,20.59
2018-03-11T14:30:46.755Z,20.58
2018-03-11T14:33:14.336Z,20.49
2018-03-11T14:35:41.837Z,20.43
2018-03-11T14:38:09.587Z,20.37
2018-03-11T14:40:37.128Z,20.32
2018-03-11T14:43:04.641Z,20.24
2018-03-11T14:45:32.129Z,20.23
2018-03-11T14:48:00.331Z,20.23
2018-03-11T14:50:27.919Z,20.22
2018-03-11T14:52:55.472Z,20.21
2018-03-11T14:55:22.951Z,20.18
2018-03-11T14:57:50.399Z,20.11
2018-03-11T15:00:17.931Z,20.08
2018-03-11T15:02:45.401Z,20.03
2018-03-11T15:05:12.917Z,20.03
2018-03-11T15:07:41.011Z,19.98
2018-03-11T15:10:09.039Z,19.95
2018-03-11T15:12:36.506Z,19.81
2018-03-11T15:15:03.949Z,19.71
2018-03-11T15:17:31.397Z,19.68
2018-03-11T15:19:58.845Z,19.62
2018-03-11T15:22:26.303Z,19.58
2018-03-11T15:24:53.780Z,19.54
2018-03-11T15:27:21.245Z,19.49
2018-03-11T15:29:48.697Z,19.45
2018-03-11T15:32:16.180Z,19.38
2018-03-11T15:34:43.661Z,19.35
2018-03-11T15:37:11.179Z,19.31
2018-03-11T15:39:38.633Z,19.29
2018-03-11T15:42:06.124Z,19.27
2018-03-11T15:44:33.633Z,19.26
2018-03-11T15:47:01.091Z,19.22
2018-03-11T15:49:28.569Z,19.18
2018-03-11T15:51:56.116Z,19.15
2018-03-11T15:54:23.568Z,19.19
2018-03-11T15:56:51.104Z,19.18
2018-03-11T15:59:18.563Z,19.14
2018-03-11T16:01:45.985Z,19.12
2018-03-11T16:04:13.437Z,19.07
2018-03-11T16:06:40.873Z,19.01
2018-03-11T16:09:08.325Z,18.99
2018-03-11T16:11:35.811Z,18.97
2018-03-11T16:14:03.301Z,18.94
2018-03-11T16:16:30.794Z,18.90
2018-03-11T16:18:58.305Z,18.86
2018-03-11T16:21:25.815Z,18.82
2018-03-11T16:23:53.385Z,18.77
2018-03-11T16:26:20.864Z,18.75
2018-03-11T16:28:48.371Z,18.71
2018-03-11T16:31:15.833Z,18.68
2018-03-11T16:33:43.294Z,18.64
2018-03-11T16:36:10.737Z,18.62
2018-03-11T16:38:38.205Z,18.59
2018-03-11T16:41:05.669Z,18.59
2018-03-11T16:43:33.129Z,18.54
2018-03-11T16:46:00.583Z,18.49
2018-03-11T16:48:28.197Z,18.43
2018-03-11T16:50:55.681Z,18.36
2018-03-11T16:53:23.118Z,18.29
2018-03-11T16:55:50.579Z,18.27
2018-03-11T16:58:18.029Z,18.27
2018-03-11T17:00:45.492Z,18.23
2018-03-11T17:03:12.929Z,18.19
2018-03-11T17:05:40.402Z,18.11
2018-03-11T17:08:07.862Z,18.04
2018-03-11T17:10:35.361Z,17.99
2018-03-11T17:13:02.833Z,17.93
2018-03-11T17:15:30.301Z,17.94
2018-03-11T17:17:57.773Z,17.92
2018-03-11T17:20:25.255Z,17.86
2018-03-11T17:22:52.727Z,17.87
2018-03-11T17:25:20.325Z,17.83
2018-03-11T17:27:47.807Z,17.79
2018-03-11T17:30:15.329Z,17.74
2018-03-11T17:32:42.877Z,17.72
2018-03-11T17:35:10.377Z,17.73
2018-03-11T17:37:37.850Z,17.67
2018-03-11T17:40:05.321Z,17.67
2018-03-11T17:42:32.828Z,17.60
2018-03-11T17:45:00.295Z,17.61
2018-03-11T17:47:27.749Z,17.63
2018-03-11T17:49:55.295Z,17.58
2018-03-11T17:52:22.763Z,17.53
2018-03-11T17:54:50.233Z,17.45
2018-03-11T17:57:17.720Z,17.41
2018-03-11T17:59:45.182Z,17.38
2018-03-11T18:02:12.655Z,17.38
2018-03-11T18:04:40.111Z,17.35
2018-03-11T18:07:07.915Z,17.29
2018-03-11T18:09:35.399Z,17.22
2018-03-11T18:12:02.869Z,17.16
2018-03-11T18:14:30.351Z,17.14
2018-03-11T18:16:57.846Z,17.15
2018-03-11T18:19:25.459Z,17.12
2018-03-11T18:21:52.945Z,17.09
2018-03-11T18:24:20.425Z,17.07
2018-03-11T18:26:47.884Z,17.03
2018-03-11T18:29:15.399Z,17.01
2018-03-11T18:31:42.901Z,16.97
2018-03-11T18:34:10.446Z,17.03
2018-03-11T18:36:37.965Z,16.96
2018-03-11T18:39:05.727Z,16.95
2018-03-11T18:41:33.243Z,16.97
2018-03-11T18:44:00.732Z,16.94
2018-03-11T18:46:28.234Z,16.95
2018-03-11T18:48:55.746Z,16.92
2018-03-11T18:51:23.523Z,16.92
2018-03-11T18:53:50.988Z,16.89
2018-03-11T18:56:18.469Z,16.87
2018-03-11T18:58:46.099Z,16.89
2018-03-11T19:01:13.572Z,16.83
2018-03-11T19:03:41.106Z,16.78
2018-03-11T19:06:08.537Z,16.81
2018-03-11T19:08:36.015Z,16.79
2018-03-11T19:11:03.511Z,16.78
2018-03-11T19:13:31.123Z,16.80
2018-03-11T19:15:58.630Z,16.72
2018-03-11T19:18:26.148Z,16.67
2018-03-11T19:20:53.645Z,16.64
2018-03-11T19:23:21.107Z,16.57
2018-03-11T19:25:48.576Z,16.50
2018-03-11T19:28:16.220Z,16.42
2018-03-11T19:30:43.709Z,16.33
2018-03-11T19:33:11.168Z,16.38
2018-03-11T19:35:38.666Z,16.26
2018-03-11T19:38:06.164Z,16.21
2018-03-11T19:40:33.672Z,16.21
2018-03-11T19:43:01.151Z,16.13
2018-03-11T19:45:28.711Z,16.08
2018-03-11T19:47:56.199Z,16.08
2018-03-11T19:50:23.731Z,16.07
2018-03-11T19:52:51.546Z,16.01
2018-03-11T19:55:19.152Z,15.96
2018-03-11T19:57:46.630Z,15.93
2018-03-11T20:00:14.135Z,15.90
2018-03-11T20:02:41.645Z,15.85
2018-03-11T20:05:09.165Z,15.83
2018-03-11T20:07:36.618Z,15.86
2018-03-11T20:10:05.039Z,15.84
2018-03-11T20:12:32.534Z,15.82
2018-03-11T20:15:00.044Z,15.77
2018-03-11T20:17:27.530Z,15.79
2018-03-11T20:19:55.012Z,15.76
2018-03-11T20:22:22.499Z,15.72
2018-03-11T20:24:50.012Z,15.65
2018-03-11T20:27:17.515Z,15.62
2018-03-11T20:29:45.039Z,15.53
2018-03-11T20:32:12.536Z,15.48
2018-03-11T20:34:40.084Z,15.44
2018-03-11T20:37:07.564Z,15.45
2018-03-11T20:39:35.095Z,15.45
2018-03-11T20:42:02.550Z,15.46
2018-03-11T20:44:30.030Z,15.46
2018-03-11T20:46:57.504Z,15.39
2018-03-11T20:49:25.031Z,15.34
2018-03-11T20:51:52.558Z,15.32
2018-03-11T20:54:20.012Z,15.42
2018-03-11T20:56:47.467Z,15.37
2018-03-11T20:59:14.948Z,15.27
2018-03-11T21:01:42.420Z,15.15
2018-03-11T21:04:09.910Z,15.10
2018-03-11T21:06:37.346Z,15.14
2018-03-11T21:09:05.843Z,15.18
2018-03-11T21:11:33.314Z,15.17
2018-03-11T21:14:00.766Z,15.16
2018-03-11T21:16:28.273Z,15.17
2018-03-11T21:18:55.710Z,15.18
2018-03-11T21:21:23.260Z,15.17
2018-03-11T21:23:50.798Z,15.12
2018-03-11T21:26:18.225Z,15.07
2018-03-11T21:28:45.674Z,15.04
2018-03-11T21:31:14.307Z,15.01
2018-03-11T21:33:41.838Z,15.02
2018-03-11T21:36:09.382Z,15.03
2018-03-11T21:38:36.948Z,15.02
2018-03-11T21:41:04.446Z,15.00
2018-03-11T21:43:31.931Z,14.99
2018-03-11T21:45:59.386Z,14.97
2018-03-11T21:48:26.829Z,14.92
2018-03-11T21:50:54.314Z,14.91
2018-03-11T21:53:21.806Z,14.86
2018-03-11T21:55:49.273Z,14.87
2018-03-11T21:58:16.762Z,14.87
2018-03-11T22:00:44.260Z,14.85
2018-03-11T22:03:11.746Z,14.82
2018-03-11T22:05:39.250Z,14.83
2018-03-11T22:08:06.728Z,14.79
2018-03-11T22:10:34.214Z,14.79
2018-03-11T22:13:01.690Z,14.80
2018-03-11T22:15:29.182Z,14.75
2018-03-11T22:17:56.656Z,14.66
2018-03-11T22:20:24.149Z,14.64
2018-03-11T22:22:51.712Z,14.56
2018-03-11T22:25:19.199Z,14.55
2018-03-11T22:27:46.664Z,14.51
2018-03-11T22:30:14.132Z,14.48
2018-03-11T22:32:41.575Z,14.49
2018-03-11T22:35:09.027Z,14.52
2018-03-11T22:37:36.481Z,14.48
2018-03-11T22:40:04.012Z,14.51
2018-03-11T22:42:31.492Z,14.49
2018-03-11T22:44:58.974Z,14.46
2018-03-11T22:47:26.456Z,14.46
2018-03-11T22:49:53.975Z,14.49
2018-03-11T22:52:21.883Z,14.53
2018-03-11T22:54:49.355Z,14.57
2018-03-11T22:57:16.914Z,14.60
2018-03-11T22:59:44.443Z,14.61
2018-03-11T23:02:11.906Z,14.61
2018-03-11T23:04:39.697Z,14.57
2018-03-11T23:07:07.209Z,14.58
2018-03-11T23:09:34.741Z,14.59
2018-03-11T23:12:02.213Z,14.59
2018-03-11T23:14:29.677Z,14.57
2018-03-11T23:16:57.162Z,14.55
2018-03-11T23:19:24.708Z,14.50
2018-03-11T23:22:01.862Z,14.52
2018-03-11T23:24:29.315Z,14.46
2018-03-11T23:26:56.767Z,14.39
2018-03-11T23:29:24.250Z,14.33
2018-03-11T23:31:51.735Z,14.37
2018-03-11T23:34:19.202Z,14.29
2018-03-11T23:36:46.710Z,14.30
2018-03-11T23:39:14.184Z,14.31
2018-03-11T23:41:41.666Z,14.24
2018-03-11T23:44:09.173Z,14.19
2018-03-11T23:46:36.674Z,14.20
2018-03-11T23:49:04.173Z,14.20
2018-03-11T23:51:31.704Z,14.19
2018-03-11T23:53:59.161Z,14.20
2018-03-11T23:56:26.615Z,14.21
2018-03-11T23:58:54.066Z,14.18
